Time;durP1;ratioP1;P1;durP2;ratioP2;P2;SDS_P1;SDS_P2;PMS_P1;PMS_P2;Temp;Humidity;BMP_temperature;BMP_pressure;BME280_temperature;BME280_humidity;BME280_pressure;Samples;Min_cycle;Max_cycle;Signal;HPM_P1;HPM_P2
2022/03/07 00:01:04;;;;;;;;;;;5.00;57.20;;;;;;4981239;28;19953;-69
2022/03/07 00:03:30;;;;;;;;;;;4.90;57.20;;;;;;4981783;28;19973;-70
2022/03/07 00:05:57;;;;;;;;;;;4.90;57.10;;;;;;4984805;28;20326;-69
2022/03/07 00:08:23;;;;;;;;;;;4.90;57.20;;;;;;4983820;28;19969;-69
2022/03/07 00:10:51;;;;;;;;;;;4.90;57.20;;;;;;4984936;28;19930;-70
2022/03/07 00:13:18;;;;;;;;;;;4.90;57.20;;;;;;4980361;28;19934;-69
2022/03/07 00:15:44;;;;;;;;;;;4.90;57.20;;;;;;4983472;28;19930;-70
2022/03/07 00:18:11;;;;;;;;;;;4.90;57.30;;;;;;4978310;28;19937;-69
2022/03/07 00:20:37;;;;;;;;;;;4.80;57.30;;;;;;4983862;28;19972;-70
2022/03/07 00:23:04;;;;;;;;;;;4.80;57.20;;;;;;4984560;28;19961;-70
2022/03/07 00:25:31;;;;;;;;;;;4.80;57.20;;;;;;4982393;28;19953;-70
2022/03/07 00:27:59;;;;;;;;;;;4.80;57.30;;;;;;4984630;28;20398;-69
2022/03/07 00:30:25;;;;;;;;;;;4.70;57.40;;;;;;4982208;28;19929;-69
2022/03/07 00:32:52;;;;;;;;;;;4.70;57.40;;;;;;4982554;28;19974;-70
2022/03/07 00:35:18;;;;;;;;;;;4.70;57.20;;;;;;4984779;28;19930;-70
2022/03/07 00:37:45;;;;;;;;;;;4.70;57.20;;;;;;4988458;28;19930;-69
2022/03/07 00:40:11;;;;;;;;;;;4.70;57.30;;;;;;4983763;28;19934;-70
2022/03/07 00:42:38;;;;;;;;;;;4.60;57.20;;;;;;4987183;28;19937;-70
2022/03/07 00:45:07;;;;;;;;;;;4.60;57.30;;;;;;4986340;28;20582;-70
2022/03/07 00:47:34;;;;;;;;;;;4.60;57.50;;;;;;4984516;28;20295;-69
2022/03/07 00:50:00;;;;;;;;;;;4.60;57.40;;;;;;4986687;28;19937;-69
2022/03/07 00:52:27;;;;;;;;;;;4.60;57.30;;;;;;4987500;28;19941;-70
2022/03/07 00:54:53;;;;;;;;;;;4.60;57.30;;;;;;4987521;28;19953;-70
2022/03/07 00:57:20;;;;;;;;;;;4.50;57.40;;;;;;4984239;28;19929;-70
2022/03/07 00:59:46;;;;;;;;;;;4.50;57.40;;;;;;4987750;28;19933;-69
2022/03/07 01:02:14;;;;;;;;;;;4.50;57.60;;;;;;4986412;28;19930;-69
2022/03/07 01:04:41;;;;;;;;;;;4.50;57.80;;;;;;4987483;28;19940;-69
2022/03/07 01:07:08;;;;;;;;;;;4.50;58.00;;;;;;4987296;28;19954;-69
2022/03/07 01:09:35;;;;;;;;;;;4.40;58.00;;;;;;4987028;28;19936;-69
2022/03/07 01:12:01;;;;;;;;;;;4.40;58.00;;;;;;4983875;28;19941;-69
2022/03/07 01:14:28;;;;;;;;;;;4.40;58.20;;;;;;4986979;28;19941;-69
2022/03/07 01:16:55;;;;;;;;;;;4.40;58.30;;;;;;4985768;28;19956;-69
2022/03/07 01:19:23;;;;;;;;;;;4.30;58.50;;;;;;4984867;28;19941;-70
2022/03/07 01:21:51;;;;;;;;;;;4.30;58.60;;;;;;4986928;28;19929;-70
2022/03/07 01:24:18;;;;;;;;;;;4.30;58.60;;;;;;4987529;28;20066;-70
2022/03/07 01:26:45;;;;;;;;;;;4.30;58.70;;;;;;4985535;28;19984;-69
2022/03/07 01:29:12;;;;;;;;;;;4.30;58.60;;;;;;4985561;28;19937;-69
2022/03/07 01:31:39;;;;;;;;;;;4.20;58.90;;;;;;4986116;28;19930;-68
2022/03/07 01:34:05;;;;;;;;;;;4.20;58.70;;;;;;4984998;28;19941;-69
2022/03/07 01:36:35;;;;;;;;;;;4.20;58.80;;;;;;4980474;28;19933;-70
2022/03/07 01:39:01;;;;;;;;;;;4.20;58.90;;;;;;4986692;28;19930;-69
2022/03/07 01:41:28;;;;;;;;;;;4.20;59.10;;;;;;4982909;28;19934;-69
2022/03/07 01:43:54;;;;;;;;;;;4.10;59.20;;;;;;4987335;28;20394;-69
2022/03/07 01:46:21;;;;;;;;;;;4.10;59.10;;;;;;4984565;28;19929;-69
2022/03/07 01:48:48;;;;;;;;;;;4.10;59.00;;;;;;4984859;28;19930;-70
2022/03/07 01:51:17;;;;;;;;;;;4.10;59.10;;;;;;4986275;28;19930;-69
2022/03/07 01:53:45;;;;;;;;;;;4.10;59.20;;;;;;4985887;28;20424;-70
2022/03/07 01:56:11;;;;;;;;;;;4.00;59.20;;;;;;4985854;28;19929;-70
2022/03/07 01:58:38;;;;;;;;;;;4.00;59.10;;;;;;4985065;28;19940;-70
2022/03/07 02:01:04;;;;;;;;;;;4.00;59.20;;;;;;4986200;28;19937;-69
2022/03/07 02:03:31;;;;;;;;;;;3.90;59.20;;;;;;4984400;28;19945;-70
2022/03/07 02:05:58;;;;;;;;;;;3.90;59.40;;;;;;4986546;28;20294;-70
2022/03/07 02:08:24;;;;;;;;;;;3.90;59.50;;;;;;4987037;28;19936;-69
2022/03/07 02:10:52;;;;;;;;;;;3.80;59.50;;;;;;4984757;28;19940;-69
2022/03/07 02:13:20;;;;;;;;;;;3.80;59.50;;;;;;4987049;28;19930;-69
2022/03/07 02:15:52;;;;;;;;;;;3.80;59.50;;;;;;4983746;28;19930;-70
2022/03/07 02:18:21;;;;;;;;;;;3.70;59.30;;;;;;4984623;28;19937;-70
2022/03/07 02:20:50;;;;;;;;;;;3.70;59.40;;;;;;4984508;28;19929;-69
2022/03/07 02:23:18;;;;;;;;;;;3.70;59.60;;;;;;4985454;28;20534;-69
2022/03/07 02:25:44;;;;;;;;;;;3.70;59.50;;;;;;4984877;28;20640;-69
2022/03/07 02:28:11;;;;;;;;;;;3.60;59.60;;;;;;4985376;28;20420;-69
2022/03/07 02:30:38;;;;;;;;;;;3.60;59.50;;;;;;4985392;28;19937;-69
2022/03/07 02:33:04;;;;;;;;;;;3.60;59.30;;;;;;4984655;28;19937;-70
2022/03/07 02:35:31;;;;;;;;;;;3.60;59.40;;;;;;4986147;28;19930;-69
2022/03/07 02:37:57;;;;;;;;;;;3.50;59.30;;;;;;4981993;28;20025;-69
2022/03/07 02:40:25;;;;;;;;;;;3.50;59.40;;;;;;4985491;28;20536;-69
2022/03/07 02:42:51;;;;;;;;;;;3.50;59.50;;;;;;4986049;28;19934;-68
2022/03/07 02:45:18;;;;;;;;;;;3.50;59.60;;;;;;4984265;28;20310;-69
2022/03/07 02:47:45;;;;;;;;;;;3.50;59.70;;;;;;4982493;28;19929;-69
2022/03/07 02:50:11;;;;;;;;;;;3.40;59.80;;;;;;4983868;28;19937;-70
2022/03/07 02:52:38;;;;;;;;;;;3.40;59.80;;;;;;4984959;28;19941;-69
2022/03/07 02:55:05;;;;;;;;;;;3.40;60.00;;;;;;4985716;28;19937;-69
2022/03/07 02:57:33;;;;;;;;;;;3.30;59.90;;;;;;4982987;28;20020;-69
2022/03/07 02:59:59;;;;;;;;;;;3.30;59.90;;;;;;4984388;28;21122;-69
2022/03/07 03:02:26;;;;;;;;;;;3.30;59.80;;;;;;4982019;28;20399;-69
2022/03/07 03:04:52;;;;;;;;;;;3.20;59.70;;;;;;4985715;28;19933;-69
2022/03/07 03:07:19;;;;;;;;;;;3.20;59.70;;;;;;4984269;28;19937;-69
2022/03/07 03:09:45;;;;;;;;;;;3.20;59.90;;;;;;4984162;28;19934;-70
2022/03/07 03:12:12;;;;;;;;;;;3.20;60.10;;;;;;4982319;28;20020;-69
2022/03/07 03:14:41;;;;;;;;;;;3.20;60.00;;;;;;4984627;28;20218;-70
2022/03/07 03:17:07;;;;;;;;;;;3.20;60.30;;;;;;4981920;28;21036;-68
2022/03/07 03:19:34;;;;;;;;;;;3.10;60.30;;;;;;4982399;28;19973;-69
2022/03/07 03:22:00;;;;;;;;;;;3.10;60.50;;;;;;4982860;28;19934;-70
2022/03/07 03:24:27;;;;;;;;;;;3.10;60.50;;;;;;4984180;28;20154;-69
2022/03/07 03:26:53;;;;;;;;;;;3.00;60.70;;;;;;4983502;28;20425;-69
2022/03/07 03:29:21;;;;;;;;;;;3.00;61.40;;;;;;4984199;28;19934;-69
2022/03/07 03:31:49;;;;;;;;;;;3.00;60.90;;;;;;4984307;28;19938;-69
2022/03/07 03:34:15;;;;;;;;;;;3.00;61.20;;;;;;4982365;28;20394;-70
2022/03/07 03:36:42;;;;;;;;;;;2.90;61.20;;;;;;4982514;28;19930;-70
2022/03/07 03:39:08;;;;;;;;;;;2.90;61.40;;;;;;4983744;28;19930;-69
2022/03/07 03:41:36;;;;;;;;;;;2.90;61.60;;;;;;4983685;28;19945;-68
2022/03/07 03:44:02;;;;;;;;;;;2.90;61.60;;;;;;4984325;28;19930;-69
2022/03/07 03:46:29;;;;;;;;;;;2.90;61.80;;;;;;4983633;28;19934;-69
2022/03/07 03:48:57;;;;;;;;;;;2.80;61.70;;;;;;4981064;28;19930;-69
2022/03/07 03:51:23;;;;;;;;;;;2.80;62.00;;;;;;4983790;28;20490;-69
2022/03/07 03:53:50;;;;;;;;;;;2.80;62.10;;;;;;4984074;28;20411;-70
2022/03/07 03:56:16;;;;;;;;;;;2.70;62.20;;;;;;4981533;28;19964;-69
2022/03/07 03:58:43;;;;;;;;;;;2.70;62.20;;;;;;4983535;28;19937;-69
2022/03/07 04:01:09;;;;;;;;;;;2.70;62.20;;;;;;4983150;28;19934;-70
2022/03/07 04:03:36;;;;;;;;;;;2.70;62.40;;;;;;4982824;28;20318;-69
2022/03/07 04:06:04;;;;;;;;;;;2.70;62.60;;;;;;4984055;28;19929;-68
2022/03/07 04:08:31;;;;;;;;;;;2.60;62.60;;;;;;4984199;28;19937;-70
2022/03/07 04:10:57;;;;;;;;;;;2.60;62.60;;;;;;4986759;28;19981;-69
2022/03/07 04:13:24;;;;;;;;;;;2.60;62.60;;;;;;4991139;28;19929;-69
2022/03/07 04:15:50;;;;;;;;;;;2.60;62.60;;;;;;4989790;28;19929;-70
2022/03/07 04:18:17;;;;;;;;;;;2.50;62.60;;;;;;4988908;28;19929;-68
2022/03/07 04:20:44;;;;;;;;;;;2.50;62.90;;;;;;4989498;28;19933;-69
2022/03/07 04:23:12;;;;;;;;;;;2.50;63.00;;;;;;4990829;28;19930;-69
2022/03/07 04:25:38;;;;;;;;;;;2.50;63.10;;;;;;4987386;28;20106;-69
2022/03/07 04:28:05;;;;;;;;;;;2.50;63.10;;;;;;4990467;28;19930;-70
2022/03/07 04:30:33;;;;;;;;;;;2.40;63.00;;;;;;4991455;28;19964;-69
2022/03/07 04:33:00;;;;;;;;;;;2.40;63.10;;;;;;4984334;28;19933;-69
2022/03/07 04:35:26;;;;;;;;;;;2.40;63.20;;;;;;4988158;28;19930;-69
2022/03/07 04:37:53;;;;;;;;;;;2.40;63.20;;;;;;4988562;28;20108;-68
2022/03/07 04:40:21;;;;;;;;;;;2.40;63.40;;;;;;4984862;28;19937;-69
2022/03/07 04:42:47;;;;;;;;;;;2.30;63.30;;;;;;4990088;28;19930;-68
2022/03/07 04:45:14;;;;;;;;;;;2.30;63.30;;;;;;4989590;28;19930;-69
2022/03/07 04:47:41;;;;;;;;;;;2.30;63.60;;;;;;4987485;28;19980;-69
2022/03/07 04:50:08;;;;;;;;;;;2.20;63.60;;;;;;4989502;28;19929;-69
2022/03/07 04:52:35;;;;;;;;;;;2.20;63.60;;;;;;4989957;28;19930;-68
2022/03/07 04:55:01;;;;;;;;;;;2.20;63.50;;;;;;4991038;28;19934;-69
2022/03/07 04:57:29;;;;;;;;;;;2.20;63.60;;;;;;4985425;28;20026;-68
2022/03/07 04:59:56;;;;;;;;;;;2.20;63.70;;;;;;4985322;28;19941;-69
2022/03/07 05:02:22;;;;;;;;;;;2.20;63.80;;;;;;4986841;28;19941;-70
2022/03/07 05:04:49;;;;;;;;;;;2.10;63.80;;;;;;4989562;28;19941;-69
2022/03/07 05:07:15;;;;;;;;;;;2.10;63.80;;;;;;4990344;28;19937;-69
2022/03/07 05:09:42;;;;;;;;;;;2.10;63.70;;;;;;4988877;28;19937;-69
2022/03/07 05:12:09;;;;;;;;;;;2.10;63.80;;;;;;4989468;28;20365;-68
2022/03/07 05:14:37;;;;;;;;;;;2.00;63.80;;;;;;4990272;28;19930;-69
2022/03/07 05:17:03;;;;;;;;;;;2.00;64.00;;;;;;4987105;28;19937;-69
2022/03/07 05:19:30;;;;;;;;;;;2.00;64.10;;;;;;4986997;28;19930;-69
2022/03/07 05:21:56;;;;;;;;;;;2.00;64.20;;;;;;4985170;28;19953;-68
2022/03/07 05:24:23;;;;;;;;;;;2.00;64.20;;;;;;4987611;28;19960;-69
2022/03/07 05:26:50;;;;;;;;;;;1.90;63.90;;;;;;4983758;28;19930;-69
2022/03/07 05:29:17;;;;;;;;;;;1.90;64.10;;;;;;4986474;28;19937;-69
2022/03/07 05:31:44;;;;;;;;;;;1.90;63.90;;;;;;4985644;28;19930;-70
2022/03/07 05:34:11;;;;;;;;;;;1.90;63.80;;;;;;4983634;28;19937;-69
2022/03/07 05:36:38;;;;;;;;;;;1.80;63.90;;;;;;4981776;28;19938;-68
2022/03/07 05:39:04;;;;;;;;;;;1.80;64.00;;;;;;4986150;28;19930;-70
2022/03/07 05:41:31;;;;;;;;;;;1.80;64.00;;;;;;4986207;28;19929;-70
2022/03/07 05:43:58;;;;;;;;;;;1.80;63.90;;;;;;4987135;28;19952;-68
2022/03/07 05:46:24;;;;;;;;;;;1.70;63.80;;;;;;4984570;28;19933;-70
2022/03/07 05:48:52;;;;;;;;;;;1.80;64.10;;;;;;4983968;28;19933;-69
2022/03/07 05:51:23;;;;;;;;;;;1.80;64.00;;;;;;4985998;28;19934;-69
2022/03/07 05:53:50;;;;;;;;;;;1.70;63.90;;;;;;4986104;28;20028;-69
2022/03/07 05:56:16;;;;;;;;;;;1.70;63.90;;;;;;4984370;28;19934;-70
2022/03/07 05:58:43;;;;;;;;;;;1.70;63.80;;;;;;4985992;28;19929;-70
2022/03/07 06:01:10;;;;;;;;;;;1.70;64.00;;;;;;4985096;28;19926;-69
2022/03/07 06:03:36;;;;;;;;;;;1.70;64.00;;;;;;4984299;28;19936;-69
2022/03/07 06:06:04;;;;;;;;;;;1.60;63.90;;;;;;4983944;28;19942;-69
2022/03/07 06:08:31;;;;;;;;;;;1.60;64.10;;;;;;4986995;28;19930;-69
2022/03/07 06:10:57;;;;;;;;;;;1.60;64.10;;;;;;4985006;28;20309;-68
2022/03/07 06:13:24;;;;;;;;;;;1.60;64.10;;;;;;4982372;28;20383;-70
2022/03/07 06:15:50;;;;;;;;;;;1.60;64.10;;;;;;4982753;28;19934;-69
2022/03/07 06:18:17;;;;;;;;;;;1.50;64.10;;;;;;4981016;28;19953;-68
2022/03/07 06:20:43;;;;;;;;;;;1.60;64.10;;;;;;4985395;28;20362;-69
2022/03/07 06:23:11;;;;;;;;;;;1.50;64.20;;;;;;4986104;28;19930;-69
2022/03/07 06:25:38;;;;;;;;;;;1.50;64.30;;;;;;4983324;28;19929;-69
2022/03/07 06:28:05;;;;;;;;;;;1.50;64.30;;;;;;4985589;28;19936;-69
2022/03/07 06:30:31;;;;;;;;;;;1.50;63.70;;;;;;4985027;28;19930;-69
2022/03/07 06:32:58;;;;;;;;;;;1.50;64.50;;;;;;4983756;28;19937;-70
2022/03/07 06:35:24;;;;;;;;;;;1.50;64.60;;;;;;4985598;28;19930;-69
2022/03/07 06:37:52;;;;;;;;;;;1.40;64.50;;;;;;4983489;28;19941;-68
2022/03/07 06:40:20;;;;;;;;;;;1.50;64.20;;;;;;4984583;28;19929;-67
2022/03/07 06:42:47;;;;;;;;;;;1.30;62.10;;;;;;4985858;28;19937;-68
2022/03/07 06:45:15;;;;;;;;;;;1.30;62.70;;;;;;4982501;28;19930;-68
2022/03/07 06:47:42;;;;;;;;;;;1.20;63.60;;;;;;4980650;28;20303;-68
2022/03/07 06:50:09;;;;;;;;;;;1.20;63.90;;;;;;4985830;28;19933;-68
2022/03/07 06:52:36;;;;;;;;;;;1.20;64.10;;;;;;4986208;28;19930;-68
2022/03/07 06:55:02;;;;;;;;;;;1.20;64.30;;;;;;4986228;28;19930;-68
2022/03/07 06:57:30;;;;;;;;;;;1.20;64.50;;;;;;4982821;28;19934;-67
2022/03/07 06:59:57;;;;;;;;;;;1.20;64.60;;;;;;4983977;28;19937;-68
2022/03/07 07:02:23;;;;;;;;;;;1.20;64.70;;;;;;4983954;28;20298;-68
2022/03/07 07:04:50;;;;;;;;;;;1.20;64.70;;;;;;4983797;28;20425;-68
2022/03/07 07:07:17;;;;;;;;;;;1.20;64.60;;;;;;4986201;28;19961;-68
2022/03/07 07:09:43;;;;;;;;;;;1.20;64.80;;;;;;4984976;28;19930;-68
2022/03/07 07:12:10;;;;;;;;;;;1.20;64.70;;;;;;4984892;28;20406;-68
2022/03/07 07:14:38;;;;;;;;;;;1.10;64.40;;;;;;4986083;28;20306;-77
2022/03/07 07:17:04;;;;;;;;;;;1.20;64.70;;;;;;4983431;28;19929;-75
2022/03/07 07:19:31;;;;;;;;;;;1.10;64.60;;;;;;4982192;28;19930;-76
2022/03/07 07:21:58;;;;;;;;;;;1.20;64.50;;;;;;4982908;28;20313;-76
2022/03/07 07:24:24;;;;;;;;;;;1.10;64.30;;;;;;4984841;28;20310;-78
2022/03/07 07:26:51;;;;;;;;;;;1.10;64.40;;;;;;4982982;28;19942;-77
2022/03/07 07:29:17;;;;;;;;;;;1.10;64.30;;;;;;4983836;28;20265;-76
2022/03/07 07:31:47;;;;;;;;;;;1.10;64.60;;;;;;4979841;28;19937;-75
2022/03/07 07:34:13;;;;;;;;;;;1.20;64.60;;;;;;4982515;28;19941;-80
2022/03/07 07:36:40;;;;;;;;;;;1.10;64.40;;;;;;4979915;28;19933;-76
2022/03/07 07:39:07;;;;;;;;;;;1.10;64.20;;;;;;4982004;28;19930;-77
2022/03/07 07:41:34;;;;;;;;;;;1.10;64.30;;;;;;4983530;28;20325;-77
2022/03/07 07:44:00;;;;;;;;;;;1.10;64.10;;;;;;4980207;28;19933;-78
2022/03/07 07:46:27;;;;;;;;;;;1.10;63.90;;;;;;4981270;28;19937;-78
2022/03/07 07:48:55;;;;;;;;;;;1.10;64.00;;;;;;4978252;28;19930;-78
2022/03/07 07:51:22;;;;;;;;;;;1.10;64.20;;;;;;4981747;28;19933;-77
2022/03/07 07:53:49;;;;;;;;;;;1.10;64.00;;;;;;4982047;28;19934;-78
2022/03/07 07:56:15;;;;;;;;;;;1.10;63.80;;;;;;4981500;28;19933;-78
2022/03/07 07:58:42;;;;;;;;;;;1.10;63.50;;;;;;4982775;28;20172;-77
2022/03/07 08:01:09;;;;;;;;;;;1.10;63.30;;;;;;4980175;28;19929;-78
2022/03/07 08:03:35;;;;;;;;;;;1.10;63.30;;;;;;4982087;28;19945;-78
2022/03/07 08:06:03;;;;;;;;;;;1.10;63.40;;;;;;4980213;28;19934;-81
2022/03/07 08:08:30;;;;;;;;;;;1.10;63.40;;;;;;4980877;28;19984;-80
2022/03/07 08:10:56;;;;;;;;;;;1.10;63.60;;;;;;4982144;28;19937;-77
2022/03/07 08:13:23;;;;;;;;;;;1.10;63.40;;;;;;4984123;28;19930;-78
2022/03/07 08:15:50;;;;;;;;;;;1.10;63.20;;;;;;4984816;28;19934;-79
2022/03/07 08:18:17;;;;;;;;;;;1.10;63.20;;;;;;4982489;28;19936;-79
2022/03/07 08:20:44;;;;;;;;;;;1.10;63.30;;;;;;4983584;28;19930;-78
2022/03/07 08:23:12;;;;;;;;;;;1.10;63.00;;;;;;4983552;28;19929;-78
2022/03/07 08:25:38;;;;;;;;;;;1.10;63.00;;;;;;4981314;28;19933;-77
2022/03/07 08:28:05;;;;;;;;;;;1.10;63.40;;;;;;4983732;28;20019;-76
2022/03/07 08:30:33;;;;;;;;;;;1.10;63.10;;;;;;4983120;28;19929;-77
2022/03/07 08:33:00;;;;;;;;;;;1.20;62.90;;;;;;4980522;28;19967;-77
2022/03/07 08:35:26;;;;;;;;;;;1.10;63.00;;;;;;4982397;28;19937;-76
2022/03/07 08:37:53;;;;;;;;;;;1.20;63.10;;;;;;4980140;28;19933;-77
2022/03/07 08:40:23;;;;;;;;;;;1.20;63.20;;;;;;4980618;28;19936;-78
2022/03/07 08:42:49;;;;;;;;;;;1.20;63.10;;;;;;4981823;28;19929;-77
2022/03/07 08:45:16;;;;;;;;;;;1.20;63.30;;;;;;4982061;28;19934;-78
2022/03/07 08:47:43;;;;;;;;;;;1.30;63.10;;;;;;4981407;28;19929;-77
2022/03/07 08:50:11;;;;;;;;;;;1.30;62.90;;;;;;4981735;28;19940;-77
2022/03/07 08:52:37;;;;;;;;;;;1.30;63.00;;;;;;4980626;28;19929;-77
2022/03/07 08:55:04;;;;;;;;;;;1.30;62.70;;;;;;4981476;28;19933;-77
2022/03/07 08:57:32;;;;;;;;;;;1.40;62.60;;;;;;4983587;28;19930;-77
2022/03/07 08:59:59;;;;;;;;;;;1.40;62.50;;;;;;4984614;28;19934;-77
2022/03/07 09:02:25;;;;;;;;;;;1.50;62.10;;;;;;4986415;28;20377;-77
2022/03/07 09:04:52;;;;;;;;;;;1.50;62.30;;;;;;4986241;28;20023;-78
2022/03/07 09:07:18;;;;;;;;;;;1.50;62.20;;;;;;4988117;28;19936;-77
2022/03/07 09:09:45;;;;;;;;;;;1.60;63.00;;;;;;4987355;28;19960;-78
2022/03/07 09:12:12;;;;;;;;;;;1.60;62.20;;;;;;4985295;28;19937;-78
2022/03/07 09:14:39;;;;;;;;;;;1.60;61.70;;;;;;4988249;28;19929;-78
2022/03/07 09:17:06;;;;;;;;;;;1.70;61.50;;;;;;4985676;28;19934;-78
2022/03/07 09:19:33;;;;;;;;;;;1.70;61.40;;;;;;4986371;28;19934;-79
2022/03/07 09:21:59;;;;;;;;;;;1.70;61.20;;;;;;4986337;28;19969;-76
2022/03/07 09:24:26;;;;;;;;;;;1.80;61.10;;;;;;4988503;28;19958;-77
2022/03/07 09:26:52;;;;;;;;;;;1.80;61.20;;;;;;4987311;28;19930;-78
2022/03/07 09:29:19;;;;;;;;;;;1.90;61.10;;;;;;4986545;28;19934;-78
2022/03/07 09:31:47;;;;;;;;;;;1.90;61.00;;;;;;4985285;28;19936;-76
2022/03/07 09:34:14;;;;;;;;;;;1.90;61.00;;;;;;4984663;28;19930;-78
2022/03/07 09:36:41;;;;;;;;;;;1.90;60.90;;;;;;4987828;28;20012;-78
2022/03/07 09:39:08;;;;;;;;;;;2.00;60.30;;;;;;4985331;28;19968;-78
2022/03/07 09:41:34;;;;;;;;;;;2.00;60.30;;;;;;4982043;28;19929;-78
2022/03/07 09:44:01;;;;;;;;;;;2.10;60.30;;;;;;4982964;28;19929;-77
2022/03/07 09:46:27;;;;;;;;;;;2.20;60.10;;;;;;4983733;28;19930;-77
2022/03/07 09:48:55;;;;;;;;;;;2.20;59.60;;;;;;4983038;28;19930;-77
2022/03/07 09:51:22;;;;;;;;;;;2.20;59.30;;;;;;4983543;28;19941;-79
2022/03/07 09:53:48;;;;;;;;;;;2.30;59.30;;;;;;4984537;28;20390;-77
2022/03/07 09:56:15;;;;;;;;;;;2.40;59.20;;;;;;4984048;28;19930;-78
2022/03/07 09:58:42;;;;;;;;;;;2.40;58.90;;;;;;4985273;28;20307;-78
2022/03/07 10:01:09;;;;;;;;;;;2.50;58.80;;;;;;4982541;28;20430;-77
2022/03/07 10:03:36;;;;;;;;;;;2.50;58.80;;;;;;4984222;28;19937;-78
2022/03/07 10:06:11;;;;;;;;;;;2.60;58.70;;;;;;4983960;28;19953;-79
2022/03/07 10:08:37;;;;;;;;;;;2.60;58.50;;;;;;4982417;28;19930;-77
2022/03/07 10:11:08;;;;;;;;;;;2.60;58.10;;;;;;4986275;28;19930;-78
2022/03/07 10:13:35;;;;;;;;;;;2.80;58.00;;;;;;4985664;28;19929;-77
2022/03/07 10:16:03;;;;;;;;;;;2.80;57.90;;;;;;4987129;28;19929;-79
2022/03/07 10:18:29;;;;;;;;;;;2.90;57.80;;;;;;4983660;28;19937;-79
2022/03/07 10:20:58;;;;;;;;;;;2.90;57.70;;;;;;4985964;28;20015;-77
2022/03/07 10:23:27;;;;;;;;;;;3.00;57.50;;;;;;4986360;28;19934;-79
2022/03/07 10:26:04;;;;;;;;;;;3.00;57.40;;;;;;4986386;28;19930;-79
2022/03/07 10:28:33;;;;;;;;;;;3.10;57.20;;;;;;4983961;28;20018;-79
2022/03/07 10:31:00;;;;;;;;;;;3.10;56.90;;;;;;4984864;28;19938;-77
2022/03/07 10:33:27;;;;;;;;;;;3.20;56.80;;;;;;4984120;28;19937;-80
2022/03/07 10:35:55;;;;;;;;;;;3.20;56.70;;;;;;4986558;28;19937;-78
2022/03/07 10:38:22;;;;;;;;;;;3.30;56.60;;;;;;4984240;28;19945;-78
2022/03/07 10:40:53;;;;;;;;;;;3.30;56.20;;;;;;4983084;28;19937;-77
2022/03/07 10:43:20;;;;;;;;;;;3.30;56.00;;;;;;4979240;28;19957;-77
2022/03/07 10:45:48;;;;;;;;;;;3.40;55.80;;;;;;4985250;28;20203;-78
2022/03/07 10:48:14;;;;;;;;;;;3.40;55.70;;;;;;4975955;28;19934;-80
2022/03/07 10:50:46;;;;;;;;;;;3.40;55.50;;;;;;4983329;28;20397;-77
2022/03/07 10:53:13;;;;;;;;;;;3.50;55.60;;;;;;4974186;28;19937;-78
2022/03/07 10:55:40;;;;;;;;;;;3.50;55.50;;;;;;4981568;28;19936;-78
2022/03/07 10:58:09;;;;;;;;;;;3.60;55.50;;;;;;4982806;28;19934;-77
2022/03/07 11:00:46;;;;;;;;;;;3.60;55.40;;;;;;4983785;28;19930;-79
2022/03/07 11:03:15;;;;;;;;;;;3.70;55.40;;;;;;4980070;28;19934;-78
2022/03/07 11:05:42;;;;;;;;;;;3.70;55.20;;;;;;4983420;28;19933;-80
2022/03/07 11:08:08;;;;;;;;;;;3.80;54.90;;;;;;4984309;28;19961;-79
2022/03/07 11:10:36;;;;;;;;;;;3.80;54.60;;;;;;4980901;28;19930;-77
2022/03/07 11:13:03;;;;;;;;;;;3.90;54.30;;;;;;4982618;28;19930;-78
2022/03/07 11:15:31;;;;;;;;;;;3.90;54.20;;;;;;4982408;28;19937;-78
2022/03/07 11:17:58;;;;;;;;;;;3.90;54.00;;;;;;4981046;28;19926;-77
2022/03/07 11:20:26;;;;;;;;;;;4.00;54.10;;;;;;4981660;28;20382;-77
2022/03/07 11:22:52;;;;;;;;;;;4.10;54.10;;;;;;4982621;28;20395;-77
2022/03/07 11:25:19;;;;;;;;;;;4.10;53.90;;;;;;4984440;28;19933;-79
2022/03/07 11:27:46;;;;;;;;;;;4.20;54.00;;;;;;4980661;28;20031;-77
2022/03/07 11:30:14;;;;;;;;;;;4.20;53.80;;;;;;4977982;28;20310;-77
2022/03/07 11:32:42;;;;;;;;;;;4.20;53.30;;;;;;4981955;28;19934;-78
2022/03/07 11:35:09;;;;;;;;;;;4.30;53.30;;;;;;4982941;28;20044;-76
2022/03/07 11:37:36;;;;;;;;;;;4.30;53.10;;;;;;4982669;28;20390;-80
2022/03/07 11:40:03;;;;;;;;;;;4.30;53.40;;;;;;4980492;28;19945;-78
2022/03/07 11:42:38;;;;;;;;;;;4.40;53.40;;;;;;4979514;28;19934;-77
2022/03/07 11:45:06;;;;;;;;;;;4.40;52.80;;;;;;4980094;28;19945;-77
2022/03/07 11:47:36;;;;;;;;;;;4.50;53.10;;;;;;4980826;28;20340;-77
2022/03/07 11:50:05;;;;;;;;;;;4.60;53.00;;;;;;4980461;28;19930;-79
2022/03/07 11:52:32;;;;;;;;;;;4.60;53.20;;;;;;4983290;28;19937;-78
2022/03/07 11:54:59;;;;;;;;;;;4.70;53.00;;;;;;4984269;28;20004;-77
2022/03/07 11:57:34;;;;;;;;;;;4.70;52.80;;;;;;4978964;28;19937;-76
2022/03/07 12:00:16;;;;;;;;;;;4.70;52.60;;;;;;4981651;28;20444;-78
2022/03/07 12:02:43;;;;;;;;;;;4.80;52.50;;;;;;4980209;28;19930;-79
2022/03/07 12:05:21;;;;;;;;;;;4.80;52.50;;;;;;4982141;28;19929;-76
2022/03/07 12:07:47;;;;;;;;;;;4.90;52.50;;;;;;4982797;28;19936;-76
2022/03/07 12:10:14;;;;;;;;;;;4.90;51.70;;;;;;4981974;28;19937;-78
2022/03/07 12:12:41;;;;;;;;;;;4.90;51.70;;;;;;4981914;28;19933;-79
2022/03/07 12:15:08;;;;;;;;;;;5.00;51.50;;;;;;4982610;28;20540;-76
2022/03/07 12:17:35;;;;;;;;;;;5.10;51.10;;;;;;4982867;28;19929;-77
2022/03/07 12:20:01;;;;;;;;;;;5.10;51.60;;;;;;4982302;28;20611;-77
2022/03/07 12:22:30;;;;;;;;;;;5.20;51.90;;;;;;4985782;28;19930;-78
2022/03/07 12:24:57;;;;;;;;;;;5.20;51.70;;;;;;4982567;28;20318;-79
2022/03/07 12:27:24;;;;;;;;;;;5.20;51.20;;;;;;4982961;28;19936;-77
2022/03/07 12:29:51;;;;;;;;;;;5.30;51.00;;;;;;4980610;28;19984;-78
2022/03/07 12:32:18;;;;;;;;;;;5.30;50.90;;;;;;4984175;28;20422;-77
2022/03/07 12:34:45;;;;;;;;;;;5.30;50.90;;;;;;4979382;28;20062;-78
2022/03/07 12:37:13;;;;;;;;;;;5.30;51.10;;;;;;4986906;28;20394;-78
2022/03/07 12:39:45;;;;;;;;;;;5.40;51.10;;;;;;4985373;28;20386;-77
2022/03/07 12:42:12;;;;;;;;;;;5.40;51.10;;;;;;4984650;28;19976;-78
2022/03/07 12:44:39;;;;;;;;;;;5.40;50.70;;;;;;4986035;28;19949;-77
2022/03/07 12:47:06;;;;;;;;;;;5.50;50.80;;;;;;4980655;28;19934;-79
2022/03/07 12:49:33;;;;;;;;;;;5.50;51.00;;;;;;4985475;28;19934;-79
2022/03/07 12:52:02;;;;;;;;;;;5.50;51.10;;;;;;4985368;28;19933;-77
2022/03/07 12:54:29;;;;;;;;;;;5.50;50.30;;;;;;4985491;28;19936;-77
2022/03/07 12:56:57;;;;;;;;;;;5.60;50.20;;;;;;4984049;28;20490;-77
2022/03/07 12:59:25;;;;;;;;;;;5.60;50.50;;;;;;4982624;28;20012;-78
2022/03/07 13:01:52;;;;;;;;;;;5.60;50.20;;;;;;4984504;28;19934;-77
2022/03/07 13:04:19;;;;;;;;;;;5.70;50.20;;;;;;4983337;28;19933;-78
2022/03/07 13:06:50;;;;;;;;;;;5.70;50.20;;;;;;4985361;28;19930;-79
2022/03/07 13:09:17;;;;;;;;;;;5.70;50.00;;;;;;4984813;28;19940;-79
2022/03/07 13:11:47;;;;;;;;;;;5.80;49.90;;;;;;4983585;28;19930;-78
2022/03/07 13:14:20;;;;;;;;;;;5.80;49.80;;;;;;4984834;28;20418;-79
2022/03/07 13:16:47;;;;;;;;;;;5.90;49.90;;;;;;4985334;28;19934;-77
2022/03/07 13:19:14;;;;;;;;;;;5.90;50.50;;;;;;4981904;28;19941;-78
2022/03/07 13:21:41;;;;;;;;;;;5.90;50.60;;;;;;4988407;28;19937;-77
2022/03/07 13:24:09;;;;;;;;;;;5.90;50.60;;;;;;4986911;28;19952;-78
2022/03/07 13:26:36;;;;;;;;;;;6.00;49.50;;;;;;4986105;28;19930;-78
2022/03/07 13:29:04;;;;;;;;;;;6.00;49.30;;;;;;4983637;28;19930;-78
2022/03/07 13:31:41;;;;;;;;;;;6.10;49.50;;;;;;4985244;28;20485;-77
2022/03/07 13:34:08;;;;;;;;;;;6.10;50.00;;;;;;4983380;28;20545;-77
2022/03/07 13:36:42;;;;;;;;;;;6.10;49.50;;;;;;4986196;28;19937;-76
2022/03/07 13:39:25;;;;;;;;;;;6.10;49.90;;;;;;4985030;28;19977;-77
2022/03/07 13:41:53;;;;;;;;;;;6.20;50.00;;;;;;4979086;28;20771;-80
2022/03/07 13:44:19;;;;;;;;;;;6.20;49.20;;;;;;4984651;28;19934;-78
2022/03/07 13:46:54;;;;;;;;;;;6.20;49.10;;;;;;4983225;28;19929;-77
2022/03/07 13:49:23;;;;;;;;;;;6.20;49.30;;;;;;4981838;28;19934;-70
2022/03/07 13:51:49;;;;;;;;;;;6.30;49.70;;;;;;4982903;28;20028;-70
2022/03/07 13:54:16;;;;;;;;;;;6.40;49.50;;;;;;4985356;28;19937;-69
2022/03/07 13:56:42;;;;;;;;;;;6.40;49.00;;;;;;4986633;28;19937;-69
2022/03/07 13:59:13;;;;;;;;;;;6.40;50.10;;;;;;4985620;28;20502;-68
2022/03/07 14:01:39;;;;;;;;;;;6.40;49.00;;;;;;4985751;28;19936;-70
2022/03/07 14:04:15;;;;;;;;;;;6.40;49.40;;;;;;4984441;28;19929;-70
2022/03/07 14:06:44;;;;;;;;;;;6.40;49.40;;;;;;4983168;28;19934;-69
2022/03/07 14:09:11;;;;;;;;;;;6.50;48.80;;;;;;4986671;28;19940;-69
2022/03/07 14:11:38;;;;;;;;;;;6.50;48.40;;;;;;4986970;28;19945;-69
2022/03/07 14:14:04;;;;;;;;;;;6.50;49.40;;;;;;4986216;28;20288;-69
2022/03/07 14:16:36;;;;;;;;;;;6.60;48.70;;;;;;4988229;28;19956;-69
2022/03/07 14:19:03;;;;;;;;;;;6.60;49.60;;;;;;4979643;28;20396;-69
2022/03/07 14:21:32;;;;;;;;;;;6.60;49.70;;;;;;4987321;28;19930;-69
2022/03/07 14:23:59;;;;;;;;;;;6.70;49.40;;;;;;4986998;28;20040;-69
2022/03/07 14:26:26;;;;;;;;;;;6.70;49.60;;;;;;4986487;28;20590;-70
2022/03/07 14:28:52;;;;;;;;;;;6.80;49.60;;;;;;4983365;28;19930;-70
2022/03/07 14:31:19;;;;;;;;;;;6.80;49.40;;;;;;4987336;28;20491;-70